sensor_id;sensor_type;location;lat;lon;timestamp;pressure;altitude;pressure_sealevel;temperature;humidity
35848;BME280;22332;51.954;20.118;2023-03-04T00:01:23;99979.80;;;0.93;79.23
35848;BME280;22332;51.954;20.118;2023-03-04T00:04:28;99977.68;;;0.96;79.32
35848;BME280;22332;51.954;20.118;2023-03-04T00:07:34;99969.38;;;0.99;79.34
35848;BME280;22332;51.954;20.118;2023-03-04T00:10:40;99969.45;;;0.98;79.33
35848;BME280;22332;51.954;20.118;2023-03-04T00:13:45;99970.48;;;1.04;79.51
35848;BME280;22332;51.954;20.118;2023-03-04T00:16:51;99968.28;;;1.06;79.26
35848;BME280;22332;51.954;20.118;2023-03-04T00:19:57;99967.85;;;1.05;79.36
35848;BME280;22332;51.954;20.118;2023-03-04T00:23:03;99962.05;;;1.05;79.52
35848;BME280;22332;51.954;20.118;2023-03-04T00:26:08;99964.69;;;1.07;79.40
35848;BME280;22332;51.954;20.118;2023-03-04T00:29:15;99967.72;;;1.04;79.52
35848;BME280;22332;51.954;20.118;2023-03-04T00:32:21;99962.34;;;0.92;79.50
35848;BME280;22332;51.954;20.118;2023-03-04T00:35:27;99958.61;;;0.88;79.56
35848;BME280;22332;51.954;20.118;2023-03-04T00:38:32;99957.05;;;0.85;79.91
35848;BME280;22332;51.954;20.118;2023-03-04T00:41:40;99957.12;;;0.89;79.98
35848;BME280;22332;51.954;20.118;2023-03-04T00:44:45;99954.91;;;0.90;79.92
35848;BME280;22332;51.954;20.118;2023-03-04T00:47:52;99955.39;;;0.94;79.99
35848;BME280;22332;51.954;20.118;2023-03-04T00:50:58;99948.17;;;0.97;79.80
35848;BME280;22332;51.954;20.118;2023-03-04T00:54:04;99941.44;;;0.93;80.05
35848;BME280;22332;51.954;20.118;2023-03-04T00:57:10;99938.77;;;0.83;80.39
35848;BME280;22332;51.954;20.118;2023-03-04T01:00:16;99931.64;;;0.71;80.61
35848;BME280;22332;51.954;20.118;2023-03-04T01:03:22;99924.75;;;0.67;80.67
35848;BME280;22332;51.954;20.118;2023-03-04T01:06:30;99927.89;;;0.72;80.87
35848;BME280;22332;51.954;20.118;2023-03-04T01:09:35;99915.17;;;0.71;81.18
35848;BME280;22332;51.954;20.118;2023-03-04T01:12:41;99907.36;;;0.73;80.84
35848;BME280;22332;51.954;20.118;2023-03-04T01:15:47;99898.94;;;0.70;81.05
35848;BME280;22332;51.954;20.118;2023-03-04T01:18:53;99895.73;;;0.69;80.80
35848;BME280;22332;51.954;20.118;2023-03-04T01:21:59;99877.70;;;0.69;80.65
35848;BME280;22332;51.954;20.118;2023-03-04T01:25:05;99875.80;;;0.71;80.53
35848;BME280;22332;51.954;20.118;2023-03-04T01:28:11;99878.13;;;0.75;80.63
35848;BME280;22332;51.954;20.118;2023-03-04T01:31:18;99874.06;;;0.82;80.49
35848;BME280;22332;51.954;20.118;2023-03-04T01:34:24;99869.44;;;0.86;80.81
35848;BME280;22332;51.954;20.118;2023-03-04T01:37:30;99866.69;;;0.87;80.97
35848;BME280;22332;51.954;20.118;2023-03-04T01:40:36;99864.09;;;0.87;80.60
35848;BME280;22332;51.954;20.118;2023-03-04T01:43:42;99858.40;;;0.91;80.76
35848;BME280;22332;51.954;20.118;2023-03-04T01:46:50;99854.80;;;0.95;80.74
35848;BME280;22332;51.954;20.118;2023-03-04T01:49:57;99841.02;;;0.94;80.77
35848;BME280;22332;51.954;20.118;2023-03-04T01:53:05;99838.42;;;0.94;80.95
35848;BME280;22332;51.954;20.118;2023-03-04T01:56:17;99832.59;;;0.94;81.00
35848;BME280;22332;51.954;20.118;2023-03-04T01:59:25;99823.78;;;0.98;81.00
35848;BME280;22332;51.954;20.118;2023-03-04T02:02:31;99806.94;;;1.06;81.00
35848;BME280;22332;51.954;20.118;2023-03-04T02:05:39;99792.15;;;1.10;81.07
35848;BME280;22332;51.954;20.118;2023-03-04T02:08:46;99776.56;;;1.12;80.93
35848;BME280;22332;51.954;20.118;2023-03-04T02:11:52;99763.86;;;1.16;81.06
35848;BME280;22332;51.954;20.118;2023-03-04T02:14:58;99756.68;;;1.19;80.94
35848;BME280;22332;51.954;20.118;2023-03-04T02:18:09;99749.59;;;1.20;80.81
35848;BME280;22332;51.954;20.118;2023-03-04T02:21:20;99748.29;;;1.18;80.80
35848;BME280;22332;51.954;20.118;2023-03-04T02:24:32;99737.97;;;1.18;80.94
35848;BME280;22332;51.954;20.118;2023-03-04T02:27:40;99727.16;;;1.23;80.96
35848;BME280;22332;51.954;20.118;2023-03-04T02:30:46;99704.66;;;1.31;80.77
35848;BME280;22332;51.954;20.118;2023-03-04T02:33:55;99705.73;;;1.38;80.62
35848;BME280;22332;51.954;20.118;2023-03-04T02:37:02;99697.50;;;1.41;80.62
35848;BME280;22332;51.954;20.118;2023-03-04T02:40:15;99687.09;;;1.44;80.53
35848;BME280;22332;51.954;20.118;2023-03-04T02:43:21;99690.73;;;1.47;80.58
35848;BME280;22332;51.954;20.118;2023-03-04T02:46:27;99681.05;;;1.46;80.32
35848;BME280;22332;51.954;20.118;2023-03-04T02:49:33;99674.16;;;1.46;80.43
35848;BME280;22332;51.954;20.118;2023-03-04T02:52:40;99663.96;;;1.44;80.30
35848;BME280;22332;51.954;20.118;2023-03-04T02:55:46;99662.16;;;1.45;80.30
35848;BME280;22332;51.954;20.118;2023-03-04T02:58:52;99649.52;;;1.48;80.33
35848;BME280;22332;51.954;20.118;2023-03-04T03:01:58;99638.10;;;1.53;80.38
35848;BME280;22332;51.954;20.118;2023-03-04T03:05:04;99633.18;;;1.60;80.28
35848;BME280;22332;51.954;20.118;2023-03-04T03:08:10;99630.09;;;1.65;80.09
35848;BME280;22332;51.954;20.118;2023-03-04T03:11:16;99646.06;;;1.64;80.02
35848;BME280;22332;51.954;20.118;2023-03-04T03:14:23;99657.42;;;1.62;79.86
35848;BME280;22332;51.954;20.118;2023-03-04T03:17:29;99658.60;;;1.63;79.97
35848;BME280;22332;51.954;20.118;2023-03-04T03:20:35;99664.63;;;1.60;79.83
35848;BME280;22332;51.954;20.118;2023-03-04T03:23:41;99675.55;;;1.53;79.72
35848;BME280;22332;51.954;20.118;2023-03-04T03:26:47;99675.80;;;1.48;79.69
35848;BME280;22332;51.954;20.118;2023-03-04T03:29:53;99678.44;;;1.48;79.77
35848;BME280;22332;51.954;20.118;2023-03-04T03:32:59;99682.84;;;1.48;79.79
35848;BME280;22332;51.954;20.118;2023-03-04T03:36:06;99678.55;;;1.51;79.71
35848;BME280;22332;51.954;20.118;2023-03-04T03:39:12;99678.92;;;1.55;79.73
35848;BME280;22332;51.954;20.118;2023-03-04T03:42:18;99678.05;;;1.58;79.49
35848;BME280;22332;51.954;20.118;2023-03-04T03:45:24;99675.77;;;1.46;79.28
35848;BME280;22332;51.954;20.118;2023-03-04T03:48:30;99671.48;;;1.35;79.60
35848;BME280;22332;51.954;20.118;2023-03-04T03:51:35;99673.80;;;1.36;79.91
35848;BME280;22332;51.954;20.118;2023-03-04T03:54:41;99670.75;;;1.35;79.79
35848;BME280;22332;51.954;20.118;2023-03-04T03:57:47;99668.15;;;1.35;79.82
35848;BME280;22332;51.954;20.118;2023-03-04T04:00:52;99674.71;;;1.41;79.80
35848;BME280;22332;51.954;20.118;2023-03-04T04:03:58;99669.48;;;1.43;79.70
35848;BME280;22332;51.954;20.118;2023-03-04T04:07:04;99663.66;;;1.48;79.76
35848;BME280;22332;51.954;20.118;2023-03-04T04:10:11;99665.17;;;1.52;79.82
35848;BME280;22332;51.954;20.118;2023-03-04T04:13:17;99659.83;;;1.53;79.66
35848;BME280;22332;51.954;20.118;2023-03-04T04:16:22;99665.83;;;1.55;79.73
35848;BME280;22332;51.954;20.118;2023-03-04T04:19:28;99665.80;;;1.50;79.55
35848;BME280;22332;51.954;20.118;2023-03-04T04:22:34;99665.46;;;1.45;79.63
35848;BME280;22332;51.954;20.118;2023-03-04T04:25:40;99664.52;;;1.44;79.72
35848;BME280;22332;51.954;20.118;2023-03-04T04:28:45;99662.91;;;1.49;79.77
35848;BME280;22332;51.954;20.118;2023-03-04T04:31:51;99663.92;;;1.57;79.65
35848;BME280;22332;51.954;20.118;2023-03-04T04:34:57;99665.26;;;1.61;79.42
35848;BME280;22332;51.954;20.118;2023-03-04T04:38:02;99656.36;;;1.63;79.53
35848;BME280;22332;51.954;20.118;2023-03-04T04:41:16;99655.90;;;1.62;79.31
35848;BME280;22332;51.954;20.118;2023-03-04T04:44:22;99653.66;;;1.61;79.38
35848;BME280;22332;51.954;20.118;2023-03-04T04:47:28;99650.15;;;1.61;79.33
35848;BME280;22332;51.954;20.118;2023-03-04T04:50:34;99651.98;;;1.62;79.45
35848;BME280;22332;51.954;20.118;2023-03-04T04:53:39;99651.81;;;1.60;79.00
35848;BME280;22332;51.954;20.118;2023-03-04T04:56:45;99650.41;;;1.52;79.33
35848;BME280;22332;51.954;20.118;2023-03-04T04:59:51;99650.94;;;1.50;79.14
35848;BME280;22332;51.954;20.118;2023-03-04T05:02:57;99649.61;;;1.54;79.25
35848;BME280;22332;51.954;20.118;2023-03-04T05:06:05;99647.36;;;1.58;79.26
35848;BME280;22332;51.954;20.118;2023-03-04T05:09:11;99644.95;;;1.63;79.20
35848;BME280;22332;51.954;20.118;2023-03-04T05:12:16;99644.04;;;1.63;79.13
35848;BME280;22332;51.954;20.118;2023-03-04T05:15:22;99636.50;;;1.63;79.23
35848;BME280;22332;51.954;20.118;2023-03-04T05:18:28;99636.79;;;1.62;79.25
35848;BME280;22332;51.954;20.118;2023-03-04T05:21:34;99634.63;;;1.60;79.05
35848;BME280;22332;51.954;20.118;2023-03-04T05:24:39;99639.56;;;1.60;79.19
35848;BME280;22332;51.954;20.118;2023-03-04T05:27:45;99636.04;;;1.60;79.05
35848;BME280;22332;51.954;20.118;2023-03-04T05:30:51;99645.50;;;1.60;78.99
35848;BME280;22332;51.954;20.118;2023-03-04T05:33:57;99637.47;;;1.62;78.95
35848;BME280;22332;51.954;20.118;2023-03-04T05:37:02;99639.23;;;1.69;78.97
35848;BME280;22332;51.954;20.118;2023-03-04T05:40:11;99642.16;;;1.70;78.99
35848;BME280;22332;51.954;20.118;2023-03-04T05:43:17;99639.52;;;1.74;78.97
35848;BME280;22332;51.954;20.118;2023-03-04T05:46:22;99642.94;;;1.78;78.94
35848;BME280;22332;51.954;20.118;2023-03-04T05:49:28;99645.13;;;1.77;78.67
35848;BME280;22332;51.954;20.118;2023-03-04T05:52:34;99647.88;;;1.70;78.59
35848;BME280;22332;51.954;20.118;2023-03-04T05:55:40;99647.25;;;1.69;78.83
35848;BME280;22332;51.954;20.118;2023-03-04T05:58:50;99641.67;;;1.69;78.76
35848;BME280;22332;51.954;20.118;2023-03-04T06:01:56;99641.60;;;1.68;78.88
35848;BME280;22332;51.954;20.118;2023-03-04T06:05:02;99635.61;;;1.70;78.84
35848;BME280;22332;51.954;20.118;2023-03-04T06:08:08;99632.10;;;1.78;78.89
35848;BME280;22332;51.954;20.118;2023-03-04T06:11:14;99630.58;;;1.82;78.71
35848;BME280;22332;51.954;20.118;2023-03-04T06:14:20;99629.19;;;1.86;78.62
35848;BME280;22332;51.954;20.118;2023-03-04T06:17:25;99623.01;;;1.89;78.66
35848;BME280;22332;51.954;20.118;2023-03-04T06:20:31;99623.62;;;1.90;78.47
35848;BME280;22332;51.954;20.118;2023-03-04T06:23:37;99619.24;;;1.88;78.32
35848;BME280;22332;51.954;20.118;2023-03-04T06:26:43;99617.73;;;1.89;78.43
35848;BME280;22332;51.954;20.118;2023-03-04T06:29:48;99618.02;;;1.85;78.19
35848;BME280;22332;51.954;20.118;2023-03-04T06:32:54;99623.27;;;1.79;78.38
35848;BME280;22332;51.954;20.118;2023-03-04T06:36:00;99624.73;;;1.85;78.67
35848;BME280;22332;51.954;20.118;2023-03-04T06:39:07;99623.48;;;1.90;78.40
35848;BME280;22332;51.954;20.118;2023-03-04T06:42:13;99626.52;;;1.96;78.19
35848;BME280;22332;51.954;20.118;2023-03-04T06:45:19;99626.64;;;1.97;78.06
35848;BME280;22332;51.954;20.118;2023-03-04T06:48:24;99621.27;;;1.96;78.48
35848;BME280;22332;51.954;20.118;2023-03-04T06:51:30;99618.23;;;1.97;77.88
35848;BME280;22332;51.954;20.118;2023-03-04T06:54:36;99616.30;;;1.95;78.05
35848;BME280;22332;51.954;20.118;2023-03-04T06:57:41;99623.89;;;1.96;78.25
35848;BME280;22332;51.954;20.118;2023-03-04T07:00:47;99623.93;;;1.93;78.15
35848;BME280;22332;51.954;20.118;2023-03-04T07:03:54;99625.88;;;1.96;78.21
35848;BME280;22332;51.954;20.118;2023-03-04T07:06:59;99634.69;;;2.00;78.16
35848;BME280;22332;51.954;20.118;2023-03-04T07:10:07;99631.20;;;2.02;77.87
35848;BME280;22332;51.954;20.118;2023-03-04T07:13:14;99619.14;;;2.08;77.95
35848;BME280;22332;51.954;20.118;2023-03-04T07:16:21;99616.98;;;2.14;77.82
35848;BME280;22332;51.954;20.118;2023-03-04T07:19:27;99619.51;;;2.18;77.93
35848;BME280;22332;51.954;20.118;2023-03-04T07:22:33;99625.17;;;2.22;77.75
35848;BME280;22332;51.954;20.118;2023-03-04T07:25:38;99619.63;;;2.23;77.62
35848;BME280;22332;51.954;20.118;2023-03-04T07:28:44;99617.82;;;2.19;77.31
35848;BME280;22332;51.954;20.118;2023-03-04T07:31:50;99611.26;;;2.15;77.51
35848;BME280;22332;51.954;20.118;2023-03-04T07:34:55;99610.02;;;2.13;77.56
35848;BME280;22332;51.954;20.118;2023-03-04T07:38:01;99604.45;;;2.15;77.58
35848;BME280;22332;51.954;20.118;2023-03-04T07:41:07;99598.05;;;2.14;77.42
35848;BME280;22332;51.954;20.118;2023-03-04T07:44:13;99600.39;;;2.15;77.52
35848;BME280;22332;51.954;20.118;2023-03-04T07:47:19;99598.61;;;2.25;77.59
35848;BME280;22332;51.954;20.118;2023-03-04T07:50:24;99596.59;;;2.30;77.02
35848;BME280;22332;51.954;20.118;2023-03-04T07:53:30;99593.05;;;2.31;76.87
35848;BME280;22332;51.954;20.118;2023-03-04T07:56:36;99587.45;;;2.33;77.16
35848;BME280;22332;51.954;20.118;2023-03-04T07:59:42;99586.60;;;2.35;77.06
35848;BME280;22332;51.954;20.118;2023-03-04T08:02:47;99587.57;;;2.36;76.73
35848;BME280;22332;51.954;20.118;2023-03-04T08:05:53;99583.27;;;2.33;76.95
35848;BME280;22332;51.954;20.118;2023-03-04T08:09:00;99585.66;;;2.34;76.99
35848;BME280;22332;51.954;20.118;2023-03-04T08:12:07;99586.03;;;2.33;77.18
35848;BME280;22332;51.954;20.118;2023-03-04T08:15:13;99588.59;;;2.34;77.03
35848;BME280;22332;51.954;20.118;2023-03-04T08:18:19;99582.08;;;2.40;76.99
35848;BME280;22332;51.954;20.118;2023-03-04T08:21:25;99581.72;;;2.46;77.15
35848;BME280;22332;51.954;20.118;2023-03-04T08:24:31;99576.05;;;2.51;76.74
35848;BME280;22332;51.954;20.118;2023-03-04T08:27:37;99575.62;;;2.55;76.59
35848;BME280;22332;51.954;20.118;2023-03-04T08:30:43;99582.62;;;2.60;76.64
35848;BME280;22332;51.954;20.118;2023-03-04T08:33:49;99582.09;;;2.60;76.27
35848;BME280;22332;51.954;20.118;2023-03-04T08:36:56;99579.36;;;2.57;76.54
35848;BME280;22332;51.954;20.118;2023-03-04T08:40:01;99573.11;;;2.55;76.64
35848;BME280;22332;51.954;20.118;2023-03-04T08:43:07;99565.93;;;2.58;76.78
35848;BME280;22332;51.954;20.118;2023-03-04T08:46:13;99570.70;;;2.60;76.78
35848;BME280;22332;51.954;20.118;2023-03-04T08:49:19;99566.98;;;2.62;76.72
35848;BME280;22332;51.954;20.118;2023-03-04T08:52:25;99564.56;;;2.64;76.68
35848;BME280;22332;51.954;20.118;2023-03-04T08:55:30;99558.98;;;2.61;76.49
35848;BME280;22332;51.954;20.118;2023-03-04T08:58:36;99563.27;;;2.65;76.39
35848;BME280;22332;51.954;20.118;2023-03-04T09:01:42;99563.34;;;2.70;76.55
35848;BME280;22332;51.954;20.118;2023-03-04T09:04:48;99564.29;;;2.81;76.59
35848;BME280;22332;51.954;20.118;2023-03-04T09:07:54;99558.92;;;2.91;76.85
35848;BME280;22332;51.954;20.118;2023-03-04T09:11:00;99556.19;;;2.99;76.15
35848;BME280;22332;51.954;20.118;2023-03-04T09:14:06;99552.33;;;3.01;76.53
35848;BME280;22332;51.954;20.118;2023-03-04T09:17:12;99549.62;;;3.04;76.32
35848;BME280;22332;51.954;20.118;2023-03-04T09:20:18;99549.38;;;3.05;76.30
35848;BME280;22332;51.954;20.118;2023-03-04T09:23:24;99547.72;;;3.08;76.08
35848;BME280;22332;51.954;20.118;2023-03-04T09:26:30;99544.39;;;3.06;76.36
35848;BME280;22332;51.954;20.118;2023-03-04T09:29:36;99543.56;;;3.10;76.35
35848;BME280;22332;51.954;20.118;2023-03-04T09:32:41;99541.45;;;3.17;76.41
35848;BME280;22332;51.954;20.118;2023-03-04T09:35:47;99536.51;;;3.23;76.34
35848;BME280;22332;51.954;20.118;2023-03-04T09:38:53;99533.05;;;3.31;76.19
35848;BME280;22332;51.954;20.118;2023-03-04T09:41:59;99526.92;;;3.42;76.01
35848;BME280;22332;51.954;20.118;2023-03-04T09:45:10;99517.40;;;3.59;76.17
35848;BME280;22332;51.954;20.118;2023-03-04T09:48:21;99506.19;;;3.76;76.02
35848;BME280;22332;51.954;20.118;2023-03-04T09:51:43;99501.89;;;3.79;74.84
35848;BME280;22332;51.954;20.118;2023-03-04T09:54:59;99499.00;;;3.76;74.85
35848;BME280;22332;51.954;20.118;2023-03-04T09:58:14;99494.89;;;3.74;75.42
35848;BME280;22332;51.954;20.118;2023-03-04T10:01:28;99493.08;;;3.77;75.72
35848;BME280;22332;51.954;20.118;2023-03-04T10:04:38;99491.95;;;3.84;75.65
35848;BME280;22332;51.954;20.118;2023-03-04T10:07:47;99489.91;;;3.85;75.52
35848;BME280;22332;51.954;20.118;2023-03-04T10:10:55;99490.95;;;3.91;75.56
35848;BME280;22332;51.954;20.118;2023-03-04T10:14:18;99487.44;;;3.90;75.02
35848;BME280;22332;51.954;20.118;2023-03-04T10:17:35;99489.39;;;3.79;74.94
35848;BME280;22332;51.954;20.118;2023-03-04T10:20:51;99484.20;;;3.67;74.84
35848;BME280;22332;51.954;20.118;2023-03-04T10:24:00;99481.89;;;3.68;75.36
35848;BME280;22332;51.954;20.118;2023-03-04T10:27:14;99474.90;;;3.71;75.44
35848;BME280;22332;51.954;20.118;2023-03-04T10:30:33;99475.91;;;3.78;75.20
35848;BME280;22332;51.954;20.118;2023-03-04T10:33:42;99475.70;;;3.85;75.34
35848;BME280;22332;51.954;20.118;2023-03-04T10:36:54;99472.66;;;3.87;75.11
35848;BME280;22332;51.954;20.118;2023-03-04T10:40:01;99465.81;;;3.89;75.31
35848;BME280;22332;51.954;20.118;2023-03-04T10:43:14;99459.46;;;3.94;75.09
35848;BME280;22332;51.954;20.118;2023-03-04T10:46:21;99452.50;;;3.99;75.16
35848;BME280;22332;51.954;20.118;2023-03-04T10:49:29;99438.72;;;4.02;74.61
35848;BME280;22332;51.954;20.118;2023-03-04T10:52:40;99437.13;;;4.06;74.97
35848;BME280;22332;51.954;20.118;2023-03-04T10:55:46;99437.75;;;4.13;74.56
35848;BME280;22332;51.954;20.118;2023-03-04T10:58:51;99433.26;;;4.16;74.92
35848;BME280;22332;51.954;20.118;2023-03-04T11:01:57;99440.88;;;4.18;74.33
35848;BME280;22332;51.954;20.118;2023-03-04T11:05:17;99437.91;;;4.11;74.40
35848;BME280;22332;51.954;20.118;2023-03-04T11:08:23;99431.98;;;4.08;74.50
35848;BME280;22332;51.954;20.118;2023-03-04T11:11:32;99434.63;;;4.19;74.63
35848;BME280;22332;51.954;20.118;2023-03-04T11:14:45;99433.15;;;4.30;74.75
35848;BME280;22332;51.954;20.118;2023-03-04T11:17:54;99430.73;;;4.44;74.25
35848;BME280;22332;51.954;20.118;2023-03-04T11:21:02;99428.94;;;4.42;74.15
35848;BME280;22332;51.954;20.118;2023-03-04T11:24:12;99420.58;;;4.47;74.46
35848;BME280;22332;51.954;20.118;2023-03-04T11:27:22;99425.95;;;4.54;74.15
35848;BME280;22332;51.954;20.118;2023-03-04T11:30:35;99423.80;;;4.54;74.31
35848;BME280;22332;51.954;20.118;2023-03-04T11:33:45;99419.41;;;4.54;74.41
35848;BME280;22332;51.954;20.118;2023-03-04T11:36:56;99417.10;;;4.60;74.37
35848;BME280;22332;51.954;20.118;2023-03-04T11:40:07;99414.45;;;4.62;74.28
35848;BME280;22332;51.954;20.118;2023-03-04T11:43:17;99408.75;;;4.61;74.25
35848;BME280;22332;51.954;20.118;2023-03-04T11:46:48;99408.38;;;4.58;74.08
35848;BME280;22332;51.954;20.118;2023-03-04T11:50:25;99407.34;;;4.55;74.41
35848;BME280;22332;51.954;20.118;2023-03-04T11:53:39;99401.84;;;4.61;74.44
35848;BME280;22332;51.954;20.118;2023-03-04T11:56:49;99401.00;;;4.69;74.14
35848;BME280;22332;51.954;20.118;2023-03-04T12:00:09;99392.04;;;4.71;74.14
35848;BME280;22332;51.954;20.118;2023-03-04T12:03:35;99391.54;;;4.70;74.29
35848;BME280;22332;51.954;20.118;2023-03-04T12:06:54;99380.27;;;4.72;74.39
35848;BME280;22332;51.954;20.118;2023-03-04T12:10:08;99379.11;;;4.76;74.45
35848;BME280;22332;51.954;20.118;2023-03-04T12:13:43;99375.16;;;4.75;74.41
35848;BME280;22332;51.954;20.118;2023-03-04T12:20:39;99367.47;;;4.60;74.59
35848;BME280;22332;51.954;20.118;2023-03-04T12:24:20;99364.04;;;4.57;74.71
35848;BME280;22332;51.954;20.118;2023-03-04T12:27:34;99366.74;;;4.56;74.90
35848;BME280;22332;51.954;20.118;2023-03-04T12:30:53;99363.58;;;4.58;74.95
35848;BME280;22332;51.954;20.118;2023-03-04T12:34:18;99355.27;;;4.61;74.75
35848;BME280;22332;51.954;20.118;2023-03-04T12:37:43;99352.87;;;4.67;75.01
35848;BME280;22332;51.954;20.118;2023-03-04T12:40:59;99348.71;;;4.84;74.97
35848;BME280;22332;51.954;20.118;2023-03-04T12:44:14;99347.79;;;5.04;74.95
35848;BME280;22332;51.954;20.118;2023-03-04T12:47:30;99342.99;;;5.12;74.30
35848;BME280;22332;51.954;20.118;2023-03-04T12:50:45;99346.77;;;5.10;74.27
35848;BME280;22332;51.954;20.118;2023-03-04T12:54:07;99345.35;;;5.02;74.16
35848;BME280;22332;51.954;20.118;2023-03-04T12:57:18;99340.73;;;4.97;74.49
35848;BME280;22332;51.954;20.118;2023-03-04T13:00:38;99340.06;;;4.87;74.35
35848;BME280;22332;51.954;20.118;2023-03-04T13:03:53;99339.80;;;4.76;74.65
35848;BME280;22332;51.954;20.118;2023-03-04T13:07:09;99336.88;;;4.67;74.69
35848;BME280;22332;51.954;20.118;2023-03-04T13:10:18;99335.93;;;4.62;74.83
35848;BME280;22332;51.954;20.118;2023-03-04T13:13:44;99327.89;;;4.57;75.07
35848;BME280;22332;51.954;20.118;2023-03-04T13:17:37;99331.29;;;4.57;75.19
35848;BME280;22332;51.954;20.118;2023-03-04T13:20:43;99322.50;;;4.64;75.38
35848;BME280;22332;51.954;20.118;2023-03-04T13:23:49;99320.21;;;4.66;75.18
35848;BME280;22332;51.954;20.118;2023-03-04T13:26:55;99323.91;;;4.68;75.42
35848;BME280;22332;51.954;20.118;2023-03-04T13:30:01;99327.29;;;4.70;75.87
35848;BME280;22332;51.954;20.118;2023-03-04T13:36:57;99399.04;;;3.82;78.90
35848;BME280;22332;51.954;20.118;2023-03-04T13:40:33;99403.05;;;2.89;80.99
35848;BME280;22332;51.954;20.118;2023-03-04T13:43:38;99408.35;;;2.32;83.06
35848;BME280;22332;51.954;20.118;2023-03-04T13:46:44;99409.84;;;2.08;83.11
35848;BME280;22332;51.954;20.118;2023-03-04T13:49:50;99413.26;;;1.89;84.50
35848;BME280;22332;51.954;20.118;2023-03-04T13:53:42;99407.62;;;1.81;83.89
35848;BME280;22332;51.954;20.118;2023-03-04T13:56:52;99397.59;;;1.79;83.77
35848;BME280;22332;51.954;20.118;2023-03-04T14:00:16;99399.05;;;1.87;84.15
35848;BME280;22332;51.954;20.118;2023-03-04T14:03:25;99392.36;;;1.89;83.98
35848;BME280;22332;51.954;20.118;2023-03-04T14:06:31;99393.03;;;1.94;84.43
35848;BME280;22332;51.954;20.118;2023-03-04T14:09:37;99392.07;;;2.05;83.23
35848;BME280;22332;51.954;20.118;2023-03-04T14:12:45;99388.59;;;2.27;83.01
35848;BME280;22332;51.954;20.118;2023-03-04T14:15:59;99393.38;;;2.44;82.81
35848;BME280;22332;51.954;20.118;2023-03-04T14:19:11;99389.62;;;2.56;82.86
35848;BME280;22332;51.954;20.118;2023-03-04T14:22:24;99386.71;;;2.63;82.47
35848;BME280;22332;51.954;20.118;2023-03-04T14:25:32;99383.11;;;2.65;82.34
35848;BME280;22332;51.954;20.118;2023-03-04T14:28:49;99378.17;;;2.76;82.54
35848;BME280;22332;51.954;20.118;2023-03-04T14:31:56;99381.36;;;2.86;82.07
35848;BME280;22332;51.954;20.118;2023-03-04T14:35:06;99379.41;;;2.95;81.96
35848;BME280;22332;51.954;20.118;2023-03-04T14:38:22;99380.94;;;2.94;81.63
35848;BME280;22332;51.954;20.118;2023-03-04T14:41:30;99382.67;;;2.99;81.60
35848;BME280;22332;51.954;20.118;2023-03-04T14:44:38;99381.40;;;2.96;81.66
35848;BME280;22332;51.954;20.118;2023-03-04T14:47:47;99379.23;;;2.93;81.41
35848;BME280;22332;51.954;20.118;2023-03-04T14:50:54;99373.89;;;2.94;81.18
35848;BME280;22332;51.954;20.118;2023-03-04T14:54:01;99379.09;;;2.99;80.95
35848;BME280;22332;51.954;20.118;2023-03-04T14:57:32;99382.17;;;2.96;81.05
35848;BME280;22332;51.954;20.118;2023-03-04T15:00:39;99383.45;;;3.00;81.01
35848;BME280;22332;51.954;20.118;2023-03-04T15:03:54;99385.31;;;3.09;81.09
35848;BME280;22332;51.954;20.118;2023-03-04T15:07:01;99384.11;;;3.19;80.85
35848;BME280;22332;51.954;20.118;2023-03-04T15:10:10;99381.42;;;3.24;80.70
35848;BME280;22332;51.954;20.118;2023-03-04T15:13:37;99380.13;;;3.25;80.56
35848;BME280;22332;51.954;20.118;2023-03-04T15:17:00;99381.36;;;3.27;80.60
35848;BME280;22332;51.954;20.118;2023-03-04T15:20:21;99386.52;;;3.30;80.63
35848;BME280;22332;51.954;20.118;2023-03-04T15:23:30;99392.28;;;3.29;80.53
35848;BME280;22332;51.954;20.118;2023-03-04T15:26:39;99395.92;;;3.21;80.38
35848;BME280;22332;51.954;20.118;2023-03-04T15:29:45;99403.02;;;3.20;80.48
35848;BME280;22332;51.954;20.118;2023-03-04T15:32:51;99408.77;;;3.19;80.38
35848;BME280;22332;51.954;20.118;2023-03-04T15:35:59;99407.32;;;3.10;80.53
35848;BME280;22332;51.954;20.118;2023-03-04T15:39:08;99411.23;;;3.01;80.47
35848;BME280;22332;51.954;20.118;2023-03-04T15:42:15;99414.72;;;2.91;80.57
35848;BME280;22332;51.954;20.118;2023-03-04T15:45:24;99418.48;;;2.83;80.73
35848;BME280;22332;51.954;20.118;2023-03-04T15:48:30;99423.17;;;2.71;80.68
35848;BME280;22332;51.954;20.118;2023-03-04T15:51:36;99426.23;;;2.70;81.03
35848;BME280;22332;51.954;20.118;2023-03-04T15:54:42;99423.80;;;2.63;80.86
35848;BME280;22332;51.954;20.118;2023-03-04T15:57:51;99427.49;;;2.59;80.92
35848;BME280;22332;51.954;20.118;2023-03-04T16:00:58;99437.34;;;2.49;81.11
35848;BME280;22332;51.954;20.118;2023-03-04T16:04:03;99442.21;;;2.39;81.04
35848;BME280;22332;51.954;20.118;2023-03-04T16:07:14;99452.20;;;2.30;81.21
35848;BME280;22332;51.954;20.118;2023-03-04T16:10:25;99459.80;;;2.20;81.78
35848;BME280;22332;51.954;20.118;2023-03-04T16:13:33;99461.86;;;2.12;81.87
35848;BME280;22332;51.954;20.118;2023-03-04T16:16:38;99465.10;;;2.11;82.08
35848;BME280;22332;51.954;20.118;2023-03-04T16:19:44;99466.48;;;2.13;81.91
35848;BME280;22332;51.954;20.118;2023-03-04T16:22:54;99468.09;;;2.10;82.06
35848;BME280;22332;51.954;20.118;2023-03-04T16:26:00;99471.77;;;2.08;82.21
35848;BME280;22332;51.954;20.118;2023-03-04T16:29:07;99481.52;;;2.07;82.77
35848;BME280;22332;51.954;20.118;2023-03-04T16:32:13;99489.67;;;2.06;82.63
35848;BME280;22332;51.954;20.118;2023-03-04T16:35:20;99499.36;;;2.08;82.62
35848;BME280;22332;51.954;20.118;2023-03-04T16:38:30;99508.38;;;2.07;82.56
35848;BME280;22332;51.954;20.118;2023-03-04T16:41:36;99515.44;;;2.06;82.88
35848;BME280;22332;51.954;20.118;2023-03-04T16:44:42;99519.88;;;2.03;83.06
35848;BME280;22332;51.954;20.118;2023-03-04T16:47:48;99529.91;;;2.03;82.84